Skip to main content

NOAA/GLERL Met Station at Chicago, IL

Previous 3 Hours (2 minute increments)
See also Previous 5 Days (top of hour)
Jump down to Data
Switch to [English][Metric]
Zoom: Click and drag, Pan: shift-click and drag, Unzoom: double-click, Unzoom All




See also 1-day windrose plot


NOAA/GLERL Met Station at Chicago, IL

Previous 3 Hours (2 minute increments)
See also Previous 5 Days (top of hour only)
Jump up to Graphs
Switch to [English][Metric]
                  Wind  Wind  Wind   Air   Dew   Rel
                   Spd   Gst   Dir  Temp    Pt   Hum
YYYY-MM-DD   CST   m/s   m/s   deg     C     C     %
2020-01-23 07:50   7.1   7.9   174  -0.6  -0.6 100.2
2020-01-23 07:48   7.9   8.4   172  -0.6  -0.6 100.2
2020-01-23 07:46   7.6   8.2   171  -0.6  -0.6 100.2
2020-01-23 07:44   7.1   8.3   172  -0.6  -0.6 100.2
2020-01-23 07:42   7.1   8.2   169  -0.6  -0.6 100.2
2020-01-23 07:40   7.2   8.2   174  -0.6  -0.6 100.2
2020-01-23 07:38   8.0   8.6   174  -0.6  -0.6 100.2
2020-01-23 07:36   7.6   8.2   174  -0.6  -0.6 100.2
2020-01-23 07:34   7.8   8.3   174  -0.6  -0.6 100.2
2020-01-23 07:32   7.2   8.0   174  -0.6  -0.6 100.2
2020-01-23 07:30   6.7   7.7   174  -0.6  -0.6 100.2
2020-01-23 07:28   7.7   8.3   174  -0.7  -0.7 100.2
2020-01-23 07:26   7.7   8.2   175  -0.7  -0.7 100.2
2020-01-23 07:24   7.5   8.0   174  -0.6  -0.6 100.2
2020-01-23 07:22   7.6   8.4   171  -0.6  -0.6 100.2
2020-01-23 07:20   7.1   7.9   175  -0.6  -0.6 100.2
2020-01-23 07:18   7.0   7.9   172  -0.6  -0.6 100.2
2020-01-23 07:16   7.8   8.4   171  -0.7  -0.7 100.2
2020-01-23 07:14   7.1   8.1   172  -0.7  -0.7 100.2
2020-01-23 07:12   7.6   8.1   173  -0.7  -0.7 100.2
2020-01-23 07:10   7.2   8.0   170  -0.7  -0.7 100.2
2020-01-23 07:08   7.6   8.4   170  -0.7  -0.7 100.2
2020-01-23 07:06   7.6   8.2   170  -0.7  -0.7 100.2
2020-01-23 07:04   7.2   7.9   170  -0.7  -0.7 100.2
2020-01-23 07:02   6.5   8.0   172  -0.6  -0.6 100.2
2020-01-23 07:00   6.7   7.7   172  -0.7  -0.7 100.2
2020-01-23 06:58   7.4   8.0   172  -0.7  -0.7 100.2
2020-01-23 06:56   7.0   7.7   168  -0.7  -0.7 100.2
2020-01-23 06:54   7.6   8.3   169  -0.7  -0.7 100.2
2020-01-23 06:52   7.3   8.2   168  -0.7  -0.7 100.2
2020-01-23 06:50   7.5   8.5   169  -0.7  -0.7 100.2
2020-01-23 06:48   7.2   8.0   167  -0.7  -0.7 100.2
2020-01-23 06:46   7.1   7.8   167  -0.7  -0.7 100.2
2020-01-23 06:44   6.5   7.8   169  -0.7  -0.7 100.2
2020-01-23 06:42   7.3   8.0   170  -0.7  -0.7 100.2
2020-01-23 06:40   7.7   8.5   170  -0.7  -0.7 100.2
2020-01-23 06:38   7.1   7.9   170  -0.7  -0.7 100.2
2020-01-23 06:36   7.3   8.2   167  -0.7  -0.7 100.2
2020-01-23 06:34   6.6   7.7   166  -0.6  -0.6 100.2
2020-01-23 06:32   6.3   7.6   168  -0.6  -0.6 100.2
2020-01-23 06:30   6.3   7.1   169  -0.6  -0.6 100.2
2020-01-23 06:28   6.6   7.6   170  -0.6  -0.6 100.2
2020-01-23 06:26   7.5   8.7   172  -0.6  -0.6 100.2
2020-01-23 06:24   7.8   8.2   170  -0.6  -0.6 100.2
2020-01-23 06:22   7.2   8.1   173  -0.6  -0.6 100.2
2020-01-23 06:20   7.6   8.5   171  -0.6  -0.6 100.2
2020-01-23 06:18   7.3   8.2   172  -0.6  -0.6 100.2
2020-01-23 06:16   7.9   8.3   173  -0.6  -0.6 100.2
2020-01-23 06:14   7.1   8.0   172  -0.6  -0.6 100.2
2020-01-23 06:12   7.5   8.2   174  -0.6  -0.6 100.2
2020-01-23 06:10   7.8   8.3   176  -0.7  -0.7 100.2
2020-01-23 06:08   7.6   8.6   176  -0.7  -0.7 100.2
2020-01-23 06:06   7.3   7.8   176  -0.7  -0.7 100.2
2020-01-23 06:04   7.1   7.9   175  -0.7  -0.7 100.2
2020-01-23 06:02   7.2   7.8   176  -0.7  -0.7 100.2
2020-01-23 06:00   7.7   8.2   174  -0.7  -0.7 100.2
2020-01-23 05:58   7.3   8.0   175  -0.7  -0.7 100.2
2020-01-23 05:56   7.6   8.2   174  -0.7  -0.7 100.2
2020-01-23 05:54   7.5   8.1   176  -0.8  -0.8 100.2
2020-01-23 05:52   7.6   8.2   174  -0.8  -0.8 100.2
2020-01-23 05:50   7.3   7.8   174  -0.8  -0.8 100.2
2020-01-23 05:48   7.5   7.9   171  -0.8  -0.8 100.2
2020-01-23 05:46   7.0   7.5   172  -0.8  -0.8 100.2
2020-01-23 05:44   7.2   8.0   171  -0.8  -0.8 100.2
2020-01-23 05:42   7.3   7.7   171  -0.8  -0.8 100.2
2020-01-23 05:40   6.9   7.8   173  -0.8  -0.8 100.2
2020-01-23 05:38   7.1   7.7   169  -0.8  -0.8 100.2
2020-01-23 05:36   6.9   8.1   174  -0.8  -0.8 100.2
2020-01-23 05:34   7.2   8.3   172  -0.9  -0.9 100.2
2020-01-23 05:32   7.7   8.6   174  -0.9  -0.9 100.2
2020-01-23 05:30   7.6   8.2   171  -0.9  -0.9 100.2
2020-01-23 05:28   7.5   8.3   174  -0.9  -0.9 100.2
2020-01-23 05:26   7.6   8.3   173  -0.9  -0.9 100.2
2020-01-23 05:24   7.2   8.0   173  -0.9  -0.9 100.2
2020-01-23 05:22   7.4   8.0   175  -0.9  -0.9 100.2
2020-01-23 05:20   8.1   8.7   174  -0.9  -0.9 100.2
2020-01-23 05:18   8.2   8.7   174  -1.0  -1.0 100.2
2020-01-23 05:16   8.3   9.0   175  -1.0  -1.0 100.2
2020-01-23 05:14   8.3   8.8   171  -0.9  -0.9 100.2
2020-01-23 05:12   7.4   8.2   175  -0.9  -0.9 100.2
2020-01-23 05:10   7.3   8.0   176  -0.8  -0.8 100.2
2020-01-23 05:08   7.3   8.2   175  -0.9  -0.9 100.2
2020-01-23 05:06   8.1   8.5   173  -0.9  -0.9 100.2
2020-01-23 05:04   7.8   8.3   173  -0.9  -0.9 100.2
2020-01-23 05:02   8.2   8.7   175  -0.9  -0.9 100.2
2020-01-23 05:00   8.0   8.7   176  -0.9  -0.9 100.2
2020-01-23 04:58   7.8   8.5   174  -0.9  -0.9 100.2
2020-01-23 04:56   8.0   8.6   178  -0.8  -0.8 100.2
2020-01-23 04:54   8.0   8.7   179  -0.9  -0.9 100.2
2020-01-23 04:52   8.4   9.0   177  -0.9  -0.9 100.2
2020-01-23 04:50   8.0   9.1   180  -0.9  -0.9 100.2